KRQB

Roben-Hood Airport

Big Rapids, Michigan, USA
METAR KRQB 160055Z AUTO 00000KT 7SM CLR 00/00 A3020 RMK AO2 T00021003
Observed Flight Rules
Dec-16 @ 00:55 UTC (21 minutes ago) Visual Flight Rules
Visibility Clouds
7 miles
  • Clear skies
Temperatures Readings
Current 0°C / 32°F
Dewpoint -0°C / 32°F
Humidity 100%
Altimeter 30.2" Hg
Pressure 1023 hPa
Elevation 302
METAR KRQB 160055Z AUTO 00000KT 7SM CLR 00/00 A3020 RMK AO2 T00021003
Observed Flight Rules
Dec-16 @ 00:55 UTC
(21 minutes ago)
VFR
Clouds
  • Clear skies
Temperature Dewpoint
0°C / 32°F -0°C / 32°F
Humidity Altimeter Pressure
100% 30.2" Hg 1023 hPa